createdAt,value
2024-05-09T00:04:16.834Z,100543.03
2024-05-09T00:09:24.401Z,100544.63
2024-05-09T00:14:29.310Z,100545.44
2024-05-09T00:19:34.307Z,100533.94
2024-05-09T00:24:41.916Z,100526.00
2024-05-09T00:29:46.868Z,100525.31
2024-05-09T00:34:51.715Z,100524.63
2024-05-09T00:39:59.239Z,100525.69
2024-05-09T00:45:04.073Z,100515.09
2024-05-09T00:50:15.491Z,100518.28
2024-05-09T00:55:26.931Z,100515.47
2024-05-09T01:00:38.420Z,100504.34
2024-05-09T01:05:45.456Z,100501.84
2024-05-09T01:10:53.287Z,100513.19
2024-05-09T01:15:58.434Z,100509.56
2024-05-09T01:21:04.559Z,100519.34
2024-05-09T01:26:12.135Z,100510.91
2024-05-09T01:31:17.108Z,100503.44
2024-05-09T01:36:21.914Z,100500.63
2024-05-09T01:41:29.544Z,100497.16
2024-05-09T01:46:34.530Z,100511.09
2024-05-09T01:51:39.360Z,100512.91
2024-05-09T01:56:46.900Z,100509.78
2024-05-09T02:01:56.832Z,100510.13
2024-05-09T02:07:02.643Z,100507.91
2024-05-09T02:12:10.647Z,100507.16
2024-05-09T02:17:15.764Z,100509.09
2024-05-09T02:22:20.663Z,100513.25
2024-05-09T02:27:28.267Z,100517.56
2024-05-09T02:32:33.293Z,100513.09
2024-05-09T02:37:38.215Z,100515.13
2024-05-09T02:42:45.773Z,100528.38
2024-05-09T02:47:50.811Z,100542.94
2024-05-09T02:52:55.724Z,100536.34
2024-05-09T02:58:03.424Z,100538.69
2024-05-09T03:03:10.009Z,100544.25
2024-05-09T03:08:16.973Z,100538.25
2024-05-09T03:13:24.506Z,100539.78
2024-05-09T03:18:29.474Z,100526.28
2024-05-09T03:23:36.424Z,100522.84
2024-05-09T03:28:44.377Z,100522.75
2024-05-09T03:33:49.409Z,100511.09
2024-05-09T03:38:54.799Z,100509.34
2024-05-09T03:44:02.431Z,100519.06
2024-05-09T03:49:07.564Z,100519.31
2024-05-09T03:54:12.882Z,100515.75
2024-05-09T03:59:20.476Z,100498.13
2024-05-09T04:04:25.429Z,100485.44
2024-05-09T04:09:30.479Z,100493.38
2024-05-09T04:14:38.048Z,100497.78
2024-05-09T04:19:42.890Z,100495.72
2024-05-09T04:24:47.742Z,100507.22
2024-05-09T04:29:55.292Z,100519.38
2024-05-09T04:35:00.248Z,100521.78
2024-05-09T04:40:06.985Z,100510.44
2024-05-09T04:45:16.546Z,100509.69
2024-05-09T04:50:29.963Z,100507.72
2024-05-09T04:55:41.026Z,100520.34
2024-05-09T05:00:48.557Z,100523.59
2024-05-09T05:05:53.419Z,100521.22
2024-05-09T05:10:58.461Z,100506.81
2024-05-09T05:16:06.051Z,100499.97
2024-05-09T05:21:10.904Z,100495.41
2024-05-09T05:26:20.499Z,100486.09
2024-05-09T05:31:28.217Z,100498.44
2024-05-09T05:36:33.077Z,100497.50
2024-05-09T05:41:38.064Z,100510.69
2024-05-09T05:46:45.673Z,100511.25
2024-05-09T05:51:50.525Z,100516.56
2024-05-09T05:56:55.333Z,100513.63
2024-05-09T06:02:02.930Z,100516.88
2024-05-09T06:07:08.052Z,100508.13
2024-05-09T06:12:13.127Z,100514.25
2024-05-09T06:17:20.946Z,100520.31
2024-05-09T06:22:25.894Z,100516.72
2024-05-09T06:27:30.705Z,100513.66
2024-05-09T06:32:38.391Z,100514.44
2024-05-09T06:37:43.397Z,100517.00
2024-05-09T06:42:48.248Z,100513.66
2024-05-09T06:47:56.065Z,100516.34
2024-05-09T06:53:01.090Z,100522.44
2024-05-09T06:58:07.313Z,100533.44
2024-05-09T07:03:17.909Z,100535.09
2024-05-09T07:08:23.970Z,100521.91
2024-05-09T07:13:28.935Z,100506.13
2024-05-09T07:18:36.686Z,100500.34
2024-05-09T07:23:43.606Z,100516.09
2024-05-09T07:28:49.374Z,100505.22
2024-05-09T07:33:57.116Z,100517.09
2024-05-09T07:39:01.980Z,100515.78
2024-05-09T07:44:06.856Z,100517.38
2024-05-09T07:54:24.069Z,100487.00
2024-05-09T07:59:28.987Z,100473.97
2024-05-09T08:04:36.702Z,100482.84
2024-05-09T08:09:41.604Z,100484.53
2024-05-09T08:14:46.464Z,100499.47
2024-05-09T08:19:53.967Z,100495.31
2024-05-09T08:24:58.810Z,100489.09
2024-05-09T08:30:03.990Z,100490.59
2024-05-09T08:35:12.857Z,100490.53
2024-05-09T08:40:24.087Z,100475.06
2024-05-09T08:45:36.813Z,100469.81
2024-05-09T08:50:45.815Z,100477.19
2024-05-09T08:55:52.460Z,100479.19
2024-05-09T09:00:58.101Z,100474.97
2024-05-09T09:06:08.526Z,100490.59
2024-05-09T09:11:13.516Z,100477.94
2024-05-09T09:16:18.599Z,100462.44
2024-05-09T09:21:26.493Z,100482.22
2024-05-09T09:26:33.488Z,100475.56
2024-05-09T09:31:39.477Z,100469.13
2024-05-09T09:36:47.594Z,100473.03
2024-05-09T09:41:52.524Z,100455.53
2024-05-09T09:46:58.965Z,100445.94
2024-05-09T09:52:08.467Z,100451.88
2024-05-09T09:57:15.753Z,100444.13
2024-05-09T10:02:20.734Z,100447.16
2024-05-09T10:07:28.479Z,100450.94
2024-05-09T10:12:33.420Z,100447.66
2024-05-09T10:17:38.587Z,100461.25
2024-05-09T10:22:52.336Z,100458.38
2024-05-09T10:27:57.945Z,100445.59
2024-05-09T10:33:03.348Z,100462.84
2024-05-09T10:38:11.599Z,100448.09
2024-05-09T10:43:21.166Z,100448.47
2024-05-09T10:48:26.216Z,100447.00
2024-05-09T10:53:33.867Z,100454.91
2024-05-09T10:58:38.767Z,100437.63
2024-05-09T11:03:43.886Z,100426.16
2024-05-09T11:08:52.412Z,100427.66
2024-05-09T11:13:57.439Z,100432.22
2024-05-09T11:19:02.481Z,100424.31
2024-05-09T11:24:11.565Z,100424.22
2024-05-09T11:29:19.230Z,100416.38
2024-05-09T11:34:24.548Z,100420.94
2024-05-09T11:39:32.173Z,100408.72
2024-05-09T11:44:37.015Z,100409.69
2024-05-09T11:49:41.914Z,100399.09
2024-05-09T11:54:49.554Z,100393.06
2024-05-09T11:59:54.405Z,100388.06
2024-05-09T12:04:59.410Z,100385.09
2024-05-09T12:10:11.907Z,100377.72
2024-05-09T12:15:21.370Z,100367.81
2024-05-09T12:20:34.379Z,100357.91
2024-05-09T12:25:44.880Z,100353.09
2024-05-09T12:30:50.898Z,100341.56
2024-05-09T12:35:55.741Z,100325.91
2024-05-09T12:41:03.266Z,100325.38
2024-05-09T12:46:08.390Z,100313.63
2024-05-09T12:51:13.229Z,100305.88
2024-05-09T12:56:20.824Z,100297.28
2024-05-09T13:01:25.747Z,100298.56
2024-05-09T13:06:30.771Z,100295.16
2024-05-09T13:11:38.463Z,100297.34
2024-05-09T13:16:43.324Z,100283.41
2024-05-09T13:21:48.250Z,100278.94
2024-05-09T13:26:55.792Z,100260.06
2024-05-09T13:32:00.747Z,100266.94
2024-05-09T13:37:05.837Z,100256.16
2024-05-09T13:42:13.401Z,100251.53
2024-05-09T13:47:18.622Z,100251.91
2024-05-09T13:52:23.704Z,100251.84
2024-05-09T13:57:31.690Z,100247.00
2024-05-09T14:02:36.809Z,100243.34
2024-05-09T14:07:42.000Z,100239.16
2024-05-09T14:12:49.558Z,100231.19
2024-05-09T14:17:54.670Z,100222.16
2024-05-09T14:22:59.800Z,100209.50
2024-05-09T14:28:08.152Z,100200.06
2024-05-09T14:33:16.459Z,100196.88
2024-05-09T14:38:21.519Z,100184.25
2024-05-09T14:43:29.184Z,100177.84
2024-05-09T14:48:34.351Z,100177.84
2024-05-09T14:53:39.247Z,100172.63
2024-05-09T14:58:47.291Z,100161.63
2024-05-09T15:03:52.242Z,100157.25
2024-05-09T15:08:58.046Z,100155.88
2024-05-09T15:14:05.564Z,100146.81
2024-05-09T15:19:11.715Z,100141.28
2024-05-09T15:24:16.633Z,100132.53
2024-05-09T15:29:24.332Z,100122.97
2024-05-09T15:34:30.134Z,100117.16
2024-05-09T15:39:35.194Z,100106.16
2024-05-09T15:44:42.755Z,100101.06
2024-05-09T15:49:47.778Z,100108.66
2024-05-09T15:54:56.136Z,100107.91
2024-05-09T16:00:07.756Z,100086.63
2024-05-09T16:05:15.525Z,100086.44
2024-05-09T16:10:32.403Z,100090.84
2024-05-09T16:15:46.273Z,100086.09
2024-05-09T16:21:00.739Z,100086.09
2024-05-09T16:26:07.494Z,100081.03
2024-05-09T16:31:18.000Z,100070.06
2024-05-09T16:36:24.847Z,100070.56
2024-05-09T16:41:30.471Z,100069.44
2024-05-09T16:46:38.831Z,100071.28
2024-05-09T16:51:47.032Z,100065.38
2024-05-09T16:56:52.424Z,100063.19
2024-05-09T17:02:00.762Z,100071.28
2024-05-09T17:07:07.016Z,100057.06
2024-05-09T17:12:15.433Z,100058.75
2024-05-09T17:17:24.308Z,100059.94
2024-05-09T17:22:31.128Z,100058.75
2024-05-09T17:27:36.440Z,100047.09
2024-05-09T17:32:44.761Z,100049.34
2024-05-09T17:37:51.530Z,100050.34
2024-05-09T17:43:03.836Z,100064.88
2024-05-09T17:48:16.406Z,100071.13
2024-05-09T17:53:24.861Z,100077.22
2024-05-09T17:58:33.899Z,100066.22
2024-05-09T18:03:43.554Z,100066.53
2024-05-09T18:08:53.585Z,100071.78
2024-05-09T18:14:01.782Z,100072.59
2024-05-09T18:19:12.223Z,100083.63
2024-05-09T18:24:36.748Z,100077.84
2024-05-09T18:29:42.235Z,100086.50
2024-05-09T18:34:50.488Z,100084.78
2024-05-09T18:39:55.401Z,100089.41
2024-05-09T18:45:01.472Z,100087.66
2024-05-09T18:50:14.827Z,100092.16
2024-05-09T18:55:25.684Z,100100.19
2024-05-09T19:00:35.765Z,100114.47
2024-05-09T19:05:46.916Z,100128.34
2024-05-09T19:10:52.752Z,100134.03
2024-05-09T19:15:57.798Z,100135.50
2024-05-09T19:21:05.328Z,100148.09
2024-05-09T19:26:10.132Z,100152.81
2024-05-09T19:31:15.165Z,100144.88
2024-05-09T19:36:22.698Z,100160.09
2024-05-09T19:41:27.653Z,100161.63
2024-05-09T19:46:32.601Z,100167.28
2024-05-09T19:51:40.146Z,100178.50
2024-05-09T19:56:45.527Z,100178.97
2024-05-09T20:01:50.734Z,100193.13
2024-05-09T20:06:58.382Z,100184.03
2024-05-09T20:12:03.263Z,100191.97
2024-05-09T20:17:08.205Z,100199.09
2024-05-09T20:22:15.887Z,100201.19
2024-05-09T20:27:20.869Z,100203.84
2024-05-09T20:32:27.020Z,100214.63
2024-05-09T20:37:34.598Z,100220.56
2024-05-09T20:42:39.440Z,100229.78
2024-05-09T20:47:44.362Z,100230.88
2024-05-09T20:52:51.904Z,100241.47
2024-05-09T20:57:56.946Z,100238.47
2024-05-09T21:03:02.023Z,100246.38
2024-05-09T21:08:09.929Z,100260.69
2024-05-09T21:13:15.050Z,100256.63
2024-05-09T21:18:19.959Z,100254.47
2024-05-09T21:23:27.473Z,100266.13
2024-05-09T21:28:32.622Z,100268.25
2024-05-09T21:33:38.029Z,100269.34
2024-05-09T21:38:46.072Z,100273.84
2024-05-09T21:43:50.927Z,100276.28
2024-05-09T21:48:56.557Z,100281.22
2024-05-09T21:54:04.095Z,100283.88
2024-05-09T21:59:08.953Z,100277.94
2024-05-09T22:04:13.966Z,100278.91
2024-05-09T22:09:21.610Z,100279.28
2024-05-09T22:14:26.429Z,100277.28
2024-05-09T22:19:32.145Z,100280.31
2024-05-09T22:24:39.688Z,100273.22
2024-05-09T22:29:44.493Z,100279.53
2024-05-09T22:34:49.385Z,100278.66
2024-05-09T22:39:56.927Z,100283.88
2024-05-09T22:45:01.741Z,100280.47
2024-05-09T22:50:08.978Z,100282.47
2024-05-09T22:55:20.460Z,100282.47
2024-05-09T23:00:31.306Z,100285.16
2024-05-09T23:05:37.645Z,100287.28
2024-05-09T23:10:45.244Z,100286.78
2024-05-09T23:15:50.177Z,100285.28
2024-05-09T23:20:55.035Z,100289.53
2024-05-09T23:26:02.526Z,100284.63
2024-05-09T23:31:07.782Z,100278.47
2024-05-09T23:36:12.638Z,100275.50
2024-05-09T23:41:20.653Z,100266.66
2024-05-09T23:46:25.896Z,100263.56
2024-05-09T23:51:30.800Z,100265.38
2024-05-09T23:56:38.323Z,100264.19
